Kanaskat, Washington
Current Conditions -  °F | °C
As of 8:00 PM on Sunday 21 Dec 2014 (Local Time) from KRNT Reporting Station
Scattered Clouds Scattered Clouds  
Wind Chill: 52°   Ceiling: Unl
Heat Index: 52°   Visibility: 9mi
Dew Point: 46°   Wind: 9mph
Humidity: 80%   Direction: 170°S
Pressure: 30.08"   Gusts: NA
Location:  47.3777°N, 121.913°W
Report Text: KRNT 220400Z AUTO 17008KT 9SM SCT023 11/08 A3008 RMK AO2 T01110078 $
Loading
Personal Weather Stations






























Interactive Weather Map New forecast layout! Learn more

10-Day Weather Forecast

Advertisements
Track Severe Weather on mobile